createdAt,value
2023-01-04T00:02:10.423Z,1.95
2023-01-04T00:05:52.118Z,2.88
2023-01-04T00:09:34.041Z,2.60
2023-01-04T00:13:15.746Z,2.42
2023-01-04T00:16:57.428Z,3.20
2023-01-04T00:20:39.400Z,2.20
2023-01-04T00:24:21.215Z,3.65
2023-01-04T00:28:02.908Z,3.33
2023-01-04T00:31:45.206Z,3.28
2023-01-04T00:35:44.663Z,3.70
2023-01-04T00:39:29.328Z,3.15
2023-01-04T00:43:11.134Z,3.28
2023-01-04T00:46:52.931Z,3.25
2023-01-04T00:50:35.017Z,3.47
2023-01-04T00:54:16.842Z,3.65
2023-01-04T00:57:58.862Z,3.75
2023-01-04T01:01:41.803Z,3.83
2023-01-04T01:05:23.615Z,4.07
2023-01-04T01:09:05.637Z,4.75
2023-01-04T01:12:47.315Z,4.93
2023-01-04T01:16:53.775Z,5.50
2023-01-04T01:20:30.941Z,4.32
2023-01-04T01:24:16.331Z,5.30
2023-01-04T01:27:58.031Z,5.20
2023-01-04T01:31:40.860Z,5.00
2023-01-04T01:35:22.614Z,4.87
2023-01-04T01:39:05.516Z,4.07
2023-01-04T01:42:47.300Z,4.40
2023-01-04T01:46:32.259Z,4.50
2023-01-04T01:50:30.215Z,3.72
2023-01-04T01:54:14.576Z,4.32
2023-01-04T01:57:56.560Z,3.83
2023-01-04T02:01:38.571Z,3.65
2023-01-04T02:05:20.675Z,3.40
2023-01-04T02:09:02.576Z,3.17
2023-01-04T02:12:44.968Z,3.20
2023-01-04T02:16:35.825Z,2.83
2023-01-04T02:20:31.807Z,2.10
2023-01-04T02:24:38.439Z,2.55
2023-01-04T02:28:57.048Z,2.28
2023-01-04T02:32:51.487Z,2.90
2023-01-04T02:36:53.831Z,2.45
2023-01-04T02:40:44.189Z,1.98
2023-01-04T02:44:50.383Z,2.10
2023-01-04T02:48:57.719Z,2.70
2023-01-04T02:52:39.471Z,1.98
2023-01-04T02:56:36.690Z,2.38
2023-01-04T03:00:58.228Z,2.05
2023-01-04T03:05:19.857Z,2.22
2023-01-04T03:09:08.979Z,2.88
2023-01-04T03:13:03.907Z,3.08
2023-01-04T03:16:45.685Z,2.28
2023-01-04T03:20:29.797Z,2.60
2023-01-04T03:24:29.999Z,2.90
2023-01-04T03:28:30.484Z,2.75
2023-01-04T03:32:32.634Z,2.40
2023-01-04T03:36:23.993Z,2.95
2023-01-04T03:40:39.328Z,3.40
2023-01-04T03:44:53.884Z,2.47
2023-01-04T03:49:00.831Z,2.70
2023-01-04T03:52:42.591Z,2.33
2023-01-04T03:56:24.525Z,3.42
2023-01-04T04:00:09.998Z,2.45
2023-01-04T04:04:10.283Z,3.05
2023-01-04T04:08:10.647Z,2.78
2023-01-04T04:11:52.359Z,2.85
2023-01-04T04:15:34.065Z,2.85
2023-01-04T04:19:17.138Z,2.67
2023-01-04T04:22:58.826Z,2.80
2023-01-04T04:26:40.523Z,2.65
2023-01-04T04:30:22.486Z,2.72
2023-01-04T04:34:04.250Z,3.38
2023-01-04T04:37:45.950Z,2.72
2023-01-04T04:41:41.296Z,2.60
2023-01-04T04:45:23.308Z,2.60
2023-01-04T04:49:05.465Z,3.00
2023-01-04T04:52:51.073Z,2.42
2023-01-04T04:56:37.411Z,2.10
2023-01-04T05:00:19.300Z,2.33
2023-01-04T05:04:01.076Z,1.70
2023-01-04T05:07:42.753Z,1.85
2023-01-04T05:11:43.339Z,2.13
2023-01-04T05:15:36.753Z,1.67
2023-01-04T05:19:18.740Z,1.77
2023-01-04T05:23:00.476Z,1.08
2023-01-04T05:26:42.186Z,1.50
2023-01-04T05:30:42.759Z,1.00
2023-01-04T05:34:24.479Z,1.60
2023-01-04T05:38:06.184Z,1.13
2023-01-04T05:42:06.650Z,0.90
2023-01-04T05:45:50.204Z,0.80
2023-01-04T05:49:32.141Z,0.75
2023-01-04T05:53:14.700Z,0.70
2023-01-04T05:56:56.401Z,0.80
2023-01-04T06:00:39.430Z,0.80
2023-01-04T06:04:21.124Z,0.60
2023-01-04T06:08:02.822Z,0.40
2023-01-04T06:11:45.712Z,0.60
2023-01-04T06:15:27.461Z,0.70
2023-01-04T06:19:09.329Z,0.60
2023-01-04T06:22:51.015Z,0.55
2023-01-04T06:26:32.793Z,0.88
2023-01-04T06:30:14.662Z,1.02
2023-01-04T06:33:56.564Z,0.73
2023-01-04T06:37:38.324Z,0.70
2023-01-04T06:41:20.081Z,0.85
2023-01-04T06:45:01.948Z,1.10
2023-01-04T06:48:44.949Z,1.30
2023-01-04T06:52:26.735Z,1.55
2023-01-04T06:56:09.286Z,1.80
2023-01-04T06:59:51.275Z,1.80
2023-01-04T07:03:33.103Z,1.52
2023-01-04T07:07:14.773Z,1.90
2023-01-04T07:10:56.662Z,2.38
2023-01-04T07:14:38.338Z,2.00
2023-01-04T07:18:20.071Z,2.55
2023-01-04T07:22:02.012Z,2.78
2023-01-04T07:25:43.771Z,2.60
2023-01-04T07:29:25.658Z,3.17
2023-01-04T07:33:07.343Z,2.95
2023-01-04T07:36:49.129Z,2.70
2023-01-04T07:40:31.027Z,2.10
2023-01-04T07:44:13.035Z,2.75
2023-01-04T07:47:54.772Z,2.55
2023-01-04T07:51:36.758Z,2.90
2023-01-04T07:55:18.509Z,3.85
2023-01-04T07:59:00.366Z,2.72
2023-01-04T08:02:42.155Z,3.65
2023-01-04T08:06:23.947Z,3.78
2023-01-04T08:10:06.574Z,3.65
2023-01-04T08:13:48.842Z,3.50
2023-01-04T08:17:30.578Z,4.05
2023-01-04T08:21:13.306Z,3.40
2023-01-04T08:24:55.028Z,3.60
2023-01-04T08:28:36.941Z,3.78
2023-01-04T08:32:18.615Z,3.65
2023-01-04T08:36:08.031Z,3.42
2023-01-04T08:39:50.226Z,3.50
2023-01-04T08:43:32.077Z,3.13
2023-01-04T08:47:13.848Z,3.53
2023-01-04T08:50:59.015Z,3.20
2023-01-04T08:54:40.737Z,4.72
2023-01-04T08:58:24.225Z,4.63
2023-01-04T09:02:13.867Z,4.45
2023-01-04T09:06:05.396Z,4.70
2023-01-04T09:09:47.173Z,4.63
2023-01-04T09:13:28.943Z,4.93
2023-01-04T09:17:10.668Z,4.57
2023-01-04T09:20:52.537Z,4.70
2023-01-04T09:24:34.315Z,4.75
2023-01-04T09:28:16.024Z,4.70
2023-01-04T09:31:57.813Z,4.72
2023-01-04T09:35:39.583Z,4.78
2023-01-04T09:39:23.655Z,5.82
2023-01-04T09:43:20.212Z,4.47
2023-01-04T09:47:06.898Z,6.65
2023-01-04T09:50:54.757Z,4.47
2023-01-04T09:54:46.560Z,5.13
2023-01-04T09:58:29.197Z,5.47
2023-01-04T10:02:17.132Z,5.60
2023-01-04T10:05:58.988Z,5.00
2023-01-04T10:09:40.797Z,5.30
2023-01-04T10:13:26.143Z,5.50
2023-01-04T10:17:20.423Z,4.22
2023-01-04T10:21:30.070Z,5.20
2023-01-04T10:29:45.170Z,6.05
2023-01-04T10:33:30.355Z,5.63
2023-01-04T10:37:18.167Z,5.18
2023-01-04T10:41:09.828Z,4.68
2023-01-04T10:45:27.370Z,6.00
2023-01-04T10:49:29.127Z,5.70
2023-01-04T10:53:18.154Z,6.28
2023-01-04T10:57:06.674Z,6.05
2023-01-04T11:01:25.808Z,7.15
2023-01-04T11:05:24.910Z,5.72
2023-01-04T11:09:24.883Z,6.22
2023-01-04T11:13:07.188Z,5.25
2023-01-04T11:16:50.359Z,6.07
2023-01-04T11:20:37.668Z,6.45
2023-01-04T11:24:32.268Z,6.20
2023-01-04T11:28:18.863Z,5.78
2023-01-04T11:32:07.105Z,6.05
2023-01-04T11:35:50.827Z,6.47
2023-01-04T11:43:18.650Z,7.40
2023-01-04T11:47:08.753Z,6.05
2023-01-04T11:50:55.838Z,6.13
2023-01-04T11:54:37.537Z,6.43
2023-01-04T11:58:19.548Z,6.47
2023-01-04T12:02:35.166Z,6.80
2023-01-04T12:06:39.297Z,6.57
2023-01-04T12:10:24.560Z,6.72
2023-01-04T12:14:14.660Z,9.00
2023-01-04T12:18:02.648Z,6.28
2023-01-04T12:21:46.206Z,6.28
2023-01-04T12:25:29.226Z,5.85
2023-01-04T12:29:23.698Z,6.05
2023-01-04T12:33:30.348Z,6.38
2023-01-04T12:37:30.989Z,5.28
2023-01-04T12:41:12.867Z,6.70
2023-01-04T12:44:54.567Z,5.60
2023-01-04T12:48:55.774Z,6.03
2023-01-04T12:53:20.070Z,7.05
2023-01-04T12:57:16.862Z,6.40
2023-01-04T13:00:59.204Z,5.90
2023-01-04T13:04:41.356Z,5.95
2023-01-04T13:08:23.304Z,6.07
2023-01-04T13:12:08.254Z,5.82
2023-01-04T13:16:01.972Z,5.00
2023-01-04T13:19:44.265Z,5.43
2023-01-04T13:23:25.990Z,5.18
2023-01-04T13:27:28.079Z,5.95
2023-01-04T13:31:10.137Z,6.13
2023-01-04T13:34:55.325Z,5.22
2023-01-04T13:38:37.472Z,6.32
2023-01-04T13:42:39.205Z,6.45
2023-01-04T13:46:24.460Z,7.70
2023-01-04T13:50:07.048Z,8.27
2023-01-04T13:53:56.546Z,7.90
2023-01-04T13:57:38.225Z,7.35
2023-01-04T14:01:37.283Z,7.38
2023-01-04T14:05:19.049Z,5.68
2023-01-04T14:09:07.328Z,5.85
2023-01-04T14:12:49.007Z,5.85
2023-01-04T14:16:30.776Z,5.63
2023-01-04T14:20:15.673Z,5.78
2023-01-04T14:23:57.387Z,6.38
2023-01-04T14:27:41.073Z,5.97
2023-01-04T14:35:12.769Z,4.93
2023-01-04T14:39:00.952Z,5.70
2023-01-04T14:42:42.631Z,5.75
2023-01-04T14:46:24.405Z,5.03
2023-01-04T14:50:06.537Z,5.38
2023-01-04T14:53:48.440Z,5.57
2023-01-04T14:57:30.456Z,6.10
2023-01-04T15:01:12.764Z,5.32
2023-01-04T15:04:54.603Z,5.88
2023-01-04T15:08:36.548Z,5.85
2023-01-04T15:12:18.238Z,5.65
2023-01-04T15:15:59.995Z,5.35
2023-01-04T15:19:41.994Z,6.10
2023-01-04T15:23:23.696Z,5.43
2023-01-04T15:27:05.517Z,6.05
2023-01-04T15:30:47.329Z,6.72
2023-01-04T15:34:29.014Z,6.50
2023-01-04T15:38:16.113Z,6.15
2023-01-04T15:42:18.331Z,5.95
2023-01-04T15:46:03.591Z,6.03
2023-01-04T15:49:45.538Z,5.22
2023-01-04T15:53:27.242Z,4.72
2023-01-04T15:57:08.938Z,6.80
2023-01-04T16:00:58.432Z,6.35
2023-01-04T16:04:45.853Z,5.28
2023-01-04T16:08:27.828Z,6.38
2023-01-04T16:12:28.274Z,5.05
2023-01-04T16:16:10.423Z,5.30
2023-01-04T16:19:52.284Z,5.78
2023-01-04T16:23:34.421Z,5.32
2023-01-04T16:27:16.247Z,5.78
2023-01-04T16:30:58.246Z,5.53
2023-01-04T16:34:39.934Z,6.78
2023-01-04T16:38:21.819Z,5.78
2023-01-04T16:42:10.438Z,6.25
2023-01-04T16:46:12.613Z,5.15
2023-01-04T16:49:54.781Z,5.85
2023-01-04T16:53:36.706Z,6.45
2023-01-04T16:57:18.458Z,6.20
2023-01-04T17:01:08.618Z,7.45
2023-01-04T17:04:59.380Z,7.07
2023-01-04T17:08:41.690Z,6.53
2023-01-04T17:16:28.331Z,6.55
2023-01-04T17:20:14.461Z,6.80
2023-01-04T17:23:56.806Z,8.18
2023-01-04T17:27:38.496Z,8.50
2023-01-04T17:31:25.068Z,7.22
2023-01-04T17:35:06.978Z,7.10
2023-01-04T17:38:50.454Z,6.60
2023-01-04T17:42:35.263Z,6.45
2023-01-04T17:46:22.872Z,7.05
2023-01-04T17:50:05.865Z,6.57
2023-01-04T17:53:47.827Z,6.65
2023-01-04T17:57:32.879Z,6.97
2023-01-04T18:01:16.539Z,6.60
2023-01-04T18:08:41.343Z,6.90
2023-01-04T18:12:23.010Z,6.03
2023-01-04T18:16:25.409Z,7.28
2023-01-04T18:20:07.851Z,7.57
2023-01-04T18:24:16.411Z,7.05
2023-01-04T18:27:51.622Z,6.88
2023-01-04T18:31:33.564Z,6.22
2023-01-04T18:35:15.321Z,6.47
2023-01-04T18:38:57.505Z,6.80
2023-01-04T18:42:39.220Z,6.72
2023-01-04T18:46:21.461Z,6.68
2023-01-04T18:50:03.635Z,6.68
2023-01-04T18:53:45.312Z,7.55
2023-01-04T18:57:27.596Z,6.68
2023-01-04T19:01:11.629Z,6.93
2023-01-04T19:04:53.351Z,7.00
2023-01-04T19:08:35.463Z,6.53
2023-01-04T19:12:17.135Z,6.28
2023-01-04T19:15:58.982Z,8.50
2023-01-04T19:19:43.123Z,7.05
2023-01-04T19:23:26.397Z,6.30
2023-01-04T19:27:09.099Z,7.50
2023-01-04T19:30:50.990Z,7.05
2023-01-04T19:34:32.703Z,7.05
2023-01-04T19:38:14.396Z,7.05
2023-01-04T19:41:56.127Z,6.93
2023-01-04T19:45:38.710Z,7.30
2023-01-04T19:49:20.671Z,7.95
2023-01-04T19:53:02.483Z,7.03
2023-01-04T19:56:44.171Z,6.53
2023-01-04T20:00:26.059Z,5.75
2023-01-04T20:04:07.735Z,6.53
2023-01-04T20:07:50.786Z,6.43
2023-01-04T20:11:32.700Z,6.00
2023-01-04T20:15:14.601Z,6.38
2023-01-04T20:18:57.139Z,6.32
2023-01-04T20:22:38.809Z,6.18
2023-01-04T20:26:20.578Z,6.40
2023-01-04T20:30:02.350Z,6.13
2023-01-04T20:33:44.174Z,5.75
2023-01-04T20:37:25.857Z,5.40
2023-01-04T20:41:08.215Z,5.70
2023-01-04T20:44:49.954Z,6.35
2023-01-04T20:48:31.827Z,7.32
2023-01-04T20:52:13.533Z,7.20
2023-01-04T20:55:55.215Z,7.00
2023-01-04T20:59:37.067Z,5.45
2023-01-04T21:03:18.923Z,5.32
2023-01-04T21:07:00.692Z,5.53
2023-01-04T21:10:42.936Z,6.53
2023-01-04T21:14:25.019Z,6.75
2023-01-04T21:18:07.055Z,7.15
2023-01-04T21:21:50.007Z,8.75
2023-01-04T21:25:31.772Z,6.13
2023-01-04T21:29:13.611Z,6.25
2023-01-04T21:33:01.413Z,7.30
2023-01-04T21:36:43.514Z,6.57
2023-01-04T21:40:25.619Z,5.20
2023-01-04T21:44:07.580Z,6.35
2023-01-04T21:47:49.444Z,6.68
2023-01-04T21:51:32.210Z,6.68
2023-01-04T21:55:13.894Z,6.43
2023-01-04T21:58:55.757Z,7.10
2023-01-04T22:02:37.554Z,5.85
2023-01-04T22:06:20.559Z,6.15
2023-01-04T22:10:02.417Z,7.47
2023-01-04T22:13:44.200Z,5.28
2023-01-04T22:17:25.891Z,6.18
2023-01-04T22:21:10.840Z,5.55
2023-01-04T22:24:53.005Z,7.35
2023-01-04T22:28:37.305Z,6.35
2023-01-04T22:32:19.157Z,6.47
2023-01-04T22:36:15.455Z,5.35
2023-01-04T22:40:01.327Z,6.38
2023-01-04T22:43:43.422Z,5.75
2023-01-04T22:47:25.117Z,5.57
2023-01-04T22:51:11.700Z,6.32
2023-01-04T22:54:53.509Z,7.28
2023-01-04T22:58:36.160Z,6.07
2023-01-04T23:02:17.985Z,6.88
2023-01-04T23:05:59.783Z,6.15
2023-01-04T23:09:41.806Z,5.93
2023-01-04T23:13:23.494Z,5.60
2023-01-04T23:17:05.169Z,5.40
2023-01-04T23:20:53.676Z,6.32
2023-01-04T23:24:37.895Z,5.85
2023-01-04T23:28:20.149Z,5.63
2023-01-04T23:32:01.962Z,6.57
2023-01-04T23:35:43.665Z,6.72
2023-01-04T23:39:25.606Z,7.00
2023-01-04T23:43:07.358Z,6.68
2023-01-04T23:46:56.737Z,6.50
2023-01-04T23:50:38.846Z,6.82
2023-01-04T23:54:20.945Z,7.55
2023-01-04T23:58:02.615Z,7.50
